createdAt,value
2019-04-26T00:02:32.644Z,2.77
2019-04-26T00:05:00.369Z,2.50
2019-04-26T00:07:27.671Z,3.87
2019-04-26T00:09:56.427Z,4.27
2019-04-26T00:12:43.234Z,2.97
2019-04-26T00:15:39.456Z,4.40
2019-04-26T00:18:06.960Z,3.93
2019-04-26T00:20:34.180Z,2.80
2019-04-26T00:23:01.473Z,3.47
2019-04-26T00:25:28.766Z,3.60
2019-04-26T00:27:55.977Z,5.17
2019-04-26T00:30:23.316Z,5.07
2019-04-26T00:32:50.539Z,3.73
2019-04-26T00:35:17.865Z,4.30
2019-04-26T00:37:45.521Z,4.00
2019-04-26T00:40:14.217Z,4.53
2019-04-26T00:42:42.483Z,4.43
2019-04-26T00:45:10.000Z,5.47
2019-04-26T00:47:38.058Z,5.33
2019-04-26T00:50:07.319Z,5.00
2019-04-26T00:52:35.373Z,4.40
2019-04-26T00:55:03.292Z,4.63
2019-04-26T00:57:31.997Z,4.80
2019-04-26T00:59:59.967Z,5.10
2019-04-26T01:02:35.698Z,4.73
2019-04-26T01:05:03.109Z,5.73
2019-04-26T01:07:30.453Z,6.70
2019-04-26T01:09:57.726Z,6.53
2019-04-26T01:12:26.021Z,6.13
2019-04-26T01:14:53.461Z,6.20
2019-04-26T01:17:20.702Z,6.10
2019-04-26T01:19:48.736Z,5.73
2019-04-26T01:22:23.285Z,5.57
2019-04-26T01:24:53.878Z,5.77
2019-04-26T01:27:25.520Z,6.03
2019-04-26T01:29:56.790Z,4.83
2019-04-26T01:32:26.271Z,5.03
2019-04-26T01:34:54.784Z,4.20
2019-04-26T01:37:22.647Z,6.13
2019-04-26T01:39:56.088Z,5.17
2019-04-26T01:42:44.046Z,4.10
2019-04-26T01:45:21.773Z,4.83
2019-04-26T01:47:53.010Z,4.60
2019-04-26T01:50:23.542Z,4.70
2019-04-26T01:52:52.311Z,5.67
2019-04-26T01:55:21.521Z,5.60
2019-04-26T01:57:49.111Z,5.47
2019-04-26T02:00:26.056Z,5.00
2019-04-26T02:02:56.627Z,5.93
2019-04-26T02:05:25.914Z,5.97
2019-04-26T02:07:53.513Z,5.70
2019-04-26T02:10:24.111Z,6.93
2019-04-26T02:12:52.991Z,5.93
2019-04-26T02:15:24.109Z,6.40
2019-04-26T02:17:55.085Z,6.37
2019-04-26T02:21:02.311Z,6.07
2019-04-26T02:23:34.472Z,5.77
2019-04-26T02:26:19.899Z,5.63
2019-04-26T02:28:48.571Z,5.50
2019-04-26T02:31:16.021Z,5.30
2019-04-26T02:33:43.242Z,5.60
2019-04-26T02:36:10.501Z,6.60
2019-04-26T02:38:37.825Z,6.30
2019-04-26T02:41:05.241Z,6.00
2019-04-26T02:43:33.857Z,6.63
2019-04-26T02:46:19.692Z,5.60
2019-04-26T02:49:24.384Z,5.30
2019-04-26T02:52:24.625Z,4.73
2019-04-26T02:55:14.304Z,4.40
2019-04-26T02:57:52.129Z,4.90
2019-04-26T03:00:20.545Z,4.90
2019-04-26T03:03:03.136Z,4.27
2019-04-26T03:05:35.496Z,4.40
2019-04-26T03:08:08.191Z,5.00
2019-04-26T03:10:41.332Z,5.90
2019-04-26T03:13:19.205Z,6.90
2019-04-26T03:16:04.099Z,5.60
2019-04-26T03:18:46.472Z,4.90
2019-04-26T03:21:31.999Z,5.27
2019-04-26T03:24:06.397Z,5.03
2019-04-26T03:26:55.276Z,5.27
2019-04-26T03:30:18.579Z,6.53
2019-04-26T03:32:58.534Z,6.43
2019-04-26T03:35:57.840Z,6.03
2019-04-26T03:38:43.575Z,5.90
2019-04-26T03:41:24.003Z,5.17
2019-04-26T03:44:10.131Z,5.57
2019-04-26T03:46:59.877Z,6.13
2019-04-26T03:50:06.035Z,5.13
2019-04-26T03:52:52.094Z,4.10
2019-04-26T03:55:55.684Z,5.57
2019-04-26T03:58:32.666Z,4.37
2019-04-26T04:01:07.295Z,5.23
2019-04-26T04:03:49.226Z,4.37
2019-04-26T04:06:24.229Z,4.60
2019-04-26T04:09:01.319Z,4.37
2019-04-26T04:12:10.011Z,5.37
2019-04-26T04:15:04.636Z,5.10
2019-04-26T04:17:48.258Z,4.57
2019-04-26T04:20:54.531Z,4.77
2019-04-26T04:24:09.770Z,6.00
2019-04-26T04:27:09.690Z,5.23
2019-04-26T04:29:51.057Z,4.30
2019-04-26T04:32:39.671Z,4.40
2019-04-26T04:35:11.080Z,5.50
2019-04-26T04:38:08.527Z,6.87
2019-04-26T04:40:49.003Z,6.70
2019-04-26T04:43:36.246Z,6.83
2019-04-26T04:46:58.514Z,7.53
2019-04-26T04:49:53.311Z,8.63
2019-04-26T04:52:39.355Z,7.27
2019-04-26T04:55:13.834Z,7.73
2019-04-26T04:58:11.589Z,7.63
2019-04-26T05:01:48.715Z,7.20
2019-04-26T05:04:31.293Z,9.57
2019-04-26T05:07:39.151Z,10.93
2019-04-26T05:10:23.859Z,10.10
2019-04-26T05:13:21.521Z,11.43
2019-04-26T05:16:27.951Z,12.17
2019-04-26T05:19:25.904Z,10.83
2019-04-26T05:22:30.518Z,12.03
2019-04-26T05:25:43.612Z,12.17
2019-04-26T05:28:23.755Z,9.73
2019-04-26T05:31:16.948Z,10.00
2019-04-26T05:34:24.911Z,10.20
2019-04-26T05:37:19.760Z,10.40
2019-04-26T05:39:59.985Z,9.53
2019-04-26T05:43:27.283Z,11.03
2019-04-26T05:46:30.162Z,10.10
2019-04-26T05:49:27.932Z,8.97
2019-04-26T05:52:34.312Z,8.23
2019-04-26T05:55:56.053Z,10.03
2019-04-26T05:58:43.863Z,14.50
2019-04-26T06:02:10.276Z,13.23
2019-04-26T06:04:59.273Z,11.80
2019-04-26T06:07:58.545Z,10.40
2019-04-26T06:10:47.129Z,8.50
2019-04-26T06:13:52.328Z,9.00
2019-04-26T06:16:59.322Z,8.80
2019-04-26T06:19:51.943Z,8.13
2019-04-26T06:22:34.737Z,9.47
2019-04-26T06:25:30.312Z,13.43
2019-04-26T06:28:02.823Z,16.40
2019-04-26T06:30:57.313Z,14.87
2019-04-26T06:33:32.539Z,13.20
2019-04-26T06:36:05.641Z,11.83
2019-04-26T06:39:20.107Z,10.40
2019-04-26T06:42:23.050Z,10.60
2019-04-26T06:45:48.357Z,7.30
2019-04-26T06:48:27.795Z,8.17
2019-04-26T06:51:04.908Z,8.40
2019-04-26T06:53:45.027Z,9.57
2019-04-26T06:56:42.229Z,10.60
2019-04-26T06:59:39.668Z,13.47
2019-04-26T07:02:20.109Z,12.63
2019-04-26T07:05:15.342Z,11.60
2019-04-26T07:08:06.720Z,14.20
2019-04-26T07:11:36.673Z,14.07
2019-04-26T07:14:25.319Z,11.67
2019-04-26T07:17:19.810Z,11.13
2019-04-26T07:20:40.077Z,15.37
2019-04-26T07:23:42.548Z,12.77
2019-04-26T07:26:45.465Z,13.97
2019-04-26T07:30:01.632Z,12.87
2019-04-26T07:33:25.488Z,14.63
2019-04-26T07:36:31.348Z,15.57
2019-04-26T07:39:50.070Z,11.83
2019-04-26T07:43:03.269Z,13.03
2019-04-26T07:45:59.319Z,14.43
2019-04-26T07:48:48.023Z,12.63
2019-04-26T07:51:58.963Z,14.30
2019-04-26T07:54:58.615Z,15.27
2019-04-26T07:57:46.675Z,14.27
2019-04-26T08:00:31.173Z,13.13
2019-04-26T08:03:12.812Z,16.00
2019-04-26T08:06:06.130Z,13.83
2019-04-26T08:08:43.670Z,14.57
2019-04-26T08:11:19.251Z,12.03
2019-04-26T08:14:06.584Z,12.30
2019-04-26T08:16:49.733Z,13.93
2019-04-26T08:19:21.333Z,13.70
2019-04-26T08:21:50.631Z,15.23
2019-04-26T08:24:22.734Z,14.57
2019-04-26T08:27:13.628Z,13.80
2019-04-26T08:29:38.700Z,15.40
2019-04-26T08:32:13.287Z,14.50
2019-04-26T08:34:44.565Z,12.93
2019-04-26T08:37:22.685Z,14.40
2019-04-26T08:39:52.105Z,16.27
2019-04-26T08:42:24.916Z,14.30
2019-04-26T08:45:13.743Z,16.33
2019-04-26T08:47:53.599Z,14.97
2019-04-26T08:50:35.535Z,15.67
2019-04-26T08:53:04.266Z,20.83
2019-04-26T08:55:34.314Z,13.90
2019-04-26T08:58:07.272Z,15.83
2019-04-26T09:00:48.014Z,14.97
2019-04-26T09:07:08.385Z,15.17
2019-04-26T09:09:39.557Z,16.07
2019-04-26T09:12:22.815Z,15.87
2019-04-26T09:17:21.810Z,18.20
2019-04-26T09:19:49.292Z,16.87
2019-04-26T09:22:47.869Z,19.70
2019-04-26T09:25:22.742Z,18.93
2019-04-26T09:28:09.764Z,20.37
2019-04-26T09:30:47.652Z,19.13
2019-04-26T09:33:39.615Z,20.13
2019-04-26T09:36:07.167Z,18.53
2019-04-26T09:38:34.423Z,18.33
2019-04-26T09:41:01.675Z,19.43
2019-04-26T09:43:43.734Z,17.83
2019-04-26T09:46:29.367Z,17.97
2019-04-26T09:49:21.700Z,20.93
2019-04-26T09:51:49.618Z,19.80
2019-04-26T11:08:31.136Z,16.77
2019-04-26T11:10:58.601Z,15.57
2019-04-26T11:13:25.819Z,15.67
2019-04-26T11:15:53.113Z,16.33
2019-04-26T11:18:27.323Z,17.73
2019-04-26T11:20:49.540Z,15.30
2019-04-26T11:23:16.818Z,15.47
2019-04-26T11:25:44.074Z,13.67
2019-04-26T11:28:11.302Z,12.07
2019-04-26T11:30:38.525Z,13.47
2019-04-26T11:33:07.348Z,12.27
2019-04-26T11:35:34.983Z,12.00
2019-04-26T11:38:02.500Z,10.80
2019-04-26T11:40:29.792Z,10.50
2019-04-26T11:42:57.163Z,10.60
2019-04-26T11:45:24.406Z,10.70
2019-04-26T11:47:56.172Z,9.90
2019-04-26T11:50:20.868Z,11.50
2019-04-26T11:52:48.099Z,10.80
2019-04-26T11:55:15.455Z,10.60
2019-04-26T11:57:43.768Z,12.07
2019-04-26T12:00:19.443Z,12.17
2019-04-26T12:02:50.764Z,10.80
2019-04-26T12:05:50.414Z,13.63
2019-04-26T12:08:22.826Z,10.43
2019-04-26T12:10:50.170Z,9.80
2019-04-26T12:13:17.504Z,8.00
2019-04-26T12:15:45.395Z,9.63
2019-04-26T12:18:12.750Z,9.43
2019-04-26T12:20:40.103Z,9.17
2019-04-26T12:23:07.425Z,9.20
2019-04-26T12:25:34.683Z,9.93
2019-04-26T12:28:05.748Z,8.60
2019-04-26T12:30:31.094Z,9.17
2019-04-26T12:32:58.357Z,9.33
2019-04-26T12:35:25.636Z,8.60
2019-04-26T12:37:54.712Z,8.23
2019-04-26T12:40:22.013Z,8.90
2019-04-26T12:42:49.319Z,9.63
2019-04-26T12:45:36.198Z,11.00
2019-04-26T12:48:08.018Z,9.20
2019-04-26T12:50:37.626Z,9.83
2019-04-26T12:53:04.158Z,9.10
2019-04-26T12:55:31.713Z,8.40
2019-04-26T12:57:58.983Z,9.40
2019-04-26T13:00:32.969Z,9.53
2019-04-26T13:02:59.628Z,10.10
2019-04-26T13:05:26.908Z,8.07
2019-04-26T13:07:54.277Z,10.07
2019-04-26T13:10:53.370Z,9.83
2019-04-26T13:13:43.030Z,8.30
2019-04-26T13:16:21.529Z,8.03
2019-04-26T13:18:49.807Z,8.47
2019-04-26T13:21:17.122Z,7.30
2019-04-26T13:23:44.346Z,8.60
2019-04-26T13:26:11.581Z,8.57
2019-04-26T13:28:38.856Z,8.10
2019-04-26T13:31:06.114Z,8.13
2019-04-26T13:33:33.352Z,7.73
2019-04-26T13:36:03.713Z,8.17
2019-04-26T13:38:29.869Z,7.93
2019-04-26T13:40:59.594Z,8.40
2019-04-26T13:43:28.472Z,7.73
2019-04-26T13:46:13.638Z,7.03
2019-04-26T13:48:54.954Z,6.80
2019-04-26T13:51:22.490Z,6.47
2019-04-26T13:53:49.716Z,7.27
2019-04-26T13:56:16.991Z,7.53
2019-04-26T13:58:44.217Z,7.87
2019-04-26T14:01:14.524Z,7.83
2019-04-26T14:03:41.242Z,6.97
2019-04-26T14:06:08.578Z,7.77
2019-04-26T14:08:35.880Z,7.37
2019-04-26T14:11:03.393Z,6.57
2019-04-26T14:13:30.627Z,8.50
2019-04-26T14:15:57.880Z,6.47
2019-04-26T14:18:25.092Z,6.60
2019-04-26T14:20:54.932Z,6.70
2019-04-26T14:23:51.122Z,8.00
2019-04-26T14:26:25.949Z,5.97
2019-04-26T14:28:54.263Z,5.93
2019-04-26T14:31:22.350Z,5.70
2019-04-26T14:33:49.592Z,6.07
2019-04-26T14:36:18.289Z,5.30
2019-04-26T14:38:45.902Z,7.07
2019-04-26T14:41:13.936Z,5.53
2019-04-26T14:43:42.349Z,6.13
2019-04-26T14:46:10.398Z,4.67
2019-04-26T14:48:40.617Z,4.27
2019-04-26T14:51:08.675Z,4.07
2019-04-26T14:53:38.082Z,6.10
2019-04-26T14:56:05.324Z,4.10
2019-04-26T14:58:33.742Z,3.80
2019-04-26T15:01:03.308Z,4.93
2019-04-26T15:03:58.303Z,4.90
2019-04-26T15:06:28.957Z,4.07
2019-04-26T15:08:56.293Z,4.20
2019-04-26T15:11:23.529Z,4.30
2019-04-26T15:13:51.772Z,4.53
2019-04-26T15:16:22.021Z,4.03
2019-04-26T15:18:48.181Z,5.23
2019-04-26T15:21:15.780Z,4.53
2019-04-26T15:23:43.004Z,3.40
2019-04-26T15:26:10.266Z,6.07
2019-04-26T15:28:37.467Z,3.73
2019-04-26T15:31:04.817Z,5.93
2019-04-26T15:33:32.774Z,4.80
2019-04-26T15:36:02.259Z,4.77
2019-04-26T15:38:34.835Z,6.17
2019-04-26T15:41:22.286Z,4.60
2019-04-26T15:44:11.519Z,6.03
2019-04-26T15:46:56.993Z,8.90
2019-04-26T15:49:43.770Z,6.90
2019-04-26T15:52:11.070Z,4.83
2019-04-26T15:54:38.356Z,6.37
2019-04-26T15:57:06.559Z,4.17
2019-04-26T15:59:34.994Z,5.77
2019-04-26T16:02:02.548Z,5.17
2019-04-26T16:04:30.119Z,3.67
2019-04-26T16:06:57.468Z,5.33
2019-04-26T16:09:24.700Z,5.87
2019-04-26T16:23:41.143Z,3.13
2019-04-26T16:26:02.858Z,4.13
2019-04-26T16:29:04.677Z,3.73
2019-04-26T16:32:06.366Z,3.27
2019-04-26T16:34:34.228Z,3.57
2019-04-26T16:37:02.973Z,4.10
2019-04-26T16:39:37.990Z,3.50
2019-04-26T16:42:05.140Z,4.83
2019-04-26T16:44:31.295Z,3.00
2019-04-26T16:47:01.458Z,4.70
2019-04-26T16:49:27.286Z,3.70
2019-04-26T16:52:02.144Z,3.50
2019-04-26T16:54:26.763Z,5.13
2019-04-26T16:56:52.817Z,4.13
2019-04-26T16:59:23.971Z,3.97
2019-04-26T17:01:49.201Z,6.47
2019-04-26T17:04:19.959Z,2.30
2019-04-26T17:06:46.465Z,5.73
2019-04-26T17:09:14.482Z,5.20
2019-04-26T17:11:43.394Z,5.97
2019-04-26T17:14:11.234Z,3.73
2019-04-26T17:16:39.116Z,3.70
2019-04-26T17:19:06.309Z,4.40
2019-04-26T17:21:39.657Z,3.23
2019-04-26T17:24:26.435Z,2.40
2019-04-26T17:26:57.594Z,6.03
2019-04-26T17:29:24.813Z,4.07
2019-04-26T17:31:52.282Z,3.80
2019-04-26T17:34:22.529Z,3.93
2019-04-26T17:36:50.550Z,6.07
2019-04-26T17:39:18.498Z,4.63
2019-04-26T17:41:50.586Z,3.77
2019-04-26T17:44:14.906Z,3.40
2019-04-26T17:46:42.081Z,2.97
2019-04-26T17:49:11.078Z,4.83
2019-04-26T17:51:42.463Z,5.67
2019-04-26T17:54:32.300Z,6.17
2019-04-26T17:56:39.620Z,4.97
2019-04-26T17:59:09.224Z,5.00
2019-04-26T18:01:45.333Z,4.90
2019-04-26T18:04:04.227Z,6.50
2019-04-26T18:06:31.444Z,4.13
2019-04-26T18:08:58.684Z,2.87
2019-04-26T18:11:25.861Z,4.80
2019-04-26T18:13:53.048Z,5.40
2019-04-26T18:16:22.026Z,4.17
2019-04-26T18:19:08.808Z,3.23
2019-04-26T18:21:49.613Z,3.93
2019-04-26T18:24:16.337Z,3.70
2019-04-26T18:26:43.669Z,4.50
2019-04-26T18:29:10.892Z,3.00
2019-04-26T18:31:38.324Z,3.27
2019-04-26T18:34:05.547Z,5.80
2019-04-26T18:36:33.273Z,3.73
2019-04-26T18:39:00.816Z,3.70
2019-04-26T18:41:28.914Z,1.40
2019-04-26T18:43:59.792Z,1.30
2019-04-26T18:46:35.781Z,1.43
2019-04-26T18:49:01.494Z,1.70
2019-04-26T18:51:28.699Z,2.50
2019-04-26T18:54:30.770Z,3.20
2019-04-26T18:56:59.574Z,1.97
2019-04-26T18:59:27.977Z,1.93
2019-04-26T19:01:55.305Z,1.93
2019-04-26T19:04:23.651Z,1.83
2019-04-26T19:06:52.350Z,2.30
2019-04-26T19:09:21.373Z,2.03
2019-04-26T19:11:49.827Z,1.80
2019-04-26T19:14:49.713Z,1.83
2019-04-26T19:17:33.849Z,1.50
2019-04-26T19:20:29.899Z,1.70
2019-04-26T19:22:58.832Z,2.53
2019-04-26T19:25:29.894Z,2.50
2019-04-26T19:27:58.970Z,1.90
2019-04-26T19:30:24.559Z,2.27
2019-04-26T19:32:53.866Z,1.87
2019-04-26T19:35:21.944Z,1.90
2019-04-26T19:37:49.324Z,1.70
2019-04-26T19:40:16.516Z,3.37
2019-04-26T19:42:43.716Z,2.23
2019-04-26T19:45:19.327Z,3.10
2019-04-26T19:47:53.984Z,1.47
2019-04-26T19:50:31.033Z,2.07
2019-04-26T19:53:02.544Z,2.07
2019-04-26T19:55:56.660Z,2.87
2019-04-26T19:58:26.415Z,1.47
2019-04-26T20:00:53.683Z,2.47
2019-04-26T20:03:20.899Z,2.33
2019-04-26T20:05:48.064Z,2.67
2019-04-26T20:08:15.258Z,3.37
2019-04-26T20:10:45.358Z,2.67
2019-04-26T20:13:15.157Z,3.13
2019-04-26T20:15:42.250Z,2.50
2019-04-26T20:18:09.577Z,2.47
2019-04-26T20:20:36.751Z,2.23
2019-04-26T20:23:07.713Z,1.57
2019-04-26T20:25:33.054Z,3.20
2019-04-26T20:28:01.509Z,1.83
2019-04-26T20:30:51.819Z,3.23
2019-04-26T20:33:19.054Z,1.70
2019-04-26T20:35:46.238Z,2.67
2019-04-26T20:38:13.486Z,4.47
2019-04-26T20:40:43.434Z,2.50
2019-04-26T20:43:21.731Z,2.10
2019-04-26T20:45:41.963Z,2.00
2019-04-26T20:48:08.017Z,2.43
2019-04-26T20:50:36.880Z,2.87
2019-04-26T20:53:04.276Z,2.07
2019-04-26T20:55:34.466Z,3.23
2019-04-26T20:58:07.089Z,2.60
2019-04-26T21:00:31.607Z,3.20
2019-04-26T21:03:01.326Z,3.20
2019-04-26T21:05:28.052Z,2.87
2019-04-26T21:07:55.533Z,3.70
2019-04-26T21:10:25.649Z,3.33
2019-04-26T21:12:54.830Z,3.40
2019-04-26T21:15:24.075Z,4.47
2019-04-26T21:17:51.778Z,2.47
2019-04-26T21:20:19.228Z,2.43
2019-04-26T21:22:46.426Z,2.53
2019-04-26T21:25:36.097Z,2.60
2019-04-26T21:28:24.927Z,4.13
2019-04-26T21:31:07.532Z,3.20
2019-04-26T21:33:40.217Z,3.63
2019-04-26T21:36:17.390Z,3.83
2019-04-26T21:38:52.991Z,2.50
2019-04-26T21:41:23.589Z,2.67
2019-04-26T21:43:50.973Z,2.30
2019-04-26T21:46:19.135Z,3.97
2019-04-26T21:48:47.340Z,2.83
2019-04-26T21:51:16.137Z,2.53
2019-04-26T21:53:45.169Z,3.37
2019-04-26T21:56:14.561Z,3.80
2019-04-26T21:58:43.628Z,4.27
2019-04-26T22:01:19.150Z,4.30
2019-04-26T22:03:53.751Z,3.50
2019-04-26T22:06:19.746Z,3.67
2019-04-26T22:08:55.676Z,3.13
2019-04-26T22:11:23.283Z,3.03
2019-04-26T22:14:13.229Z,2.97
2019-04-26T22:17:04.523Z,2.90
2019-04-26T22:19:43.781Z,3.63
2019-04-26T22:22:18.072Z,4.07
2019-04-26T22:24:45.381Z,3.93
2019-04-26T22:27:13.270Z,4.43
2019-04-26T22:29:40.518Z,3.70
2019-04-26T22:32:11.541Z,3.03
2019-04-26T22:34:40.959Z,3.10
2019-04-26T22:37:11.320Z,4.23
2019-04-26T22:39:39.841Z,4.80
2019-04-26T22:42:05.293Z,3.33
2019-04-26T22:44:47.004Z,4.67
2019-04-26T22:47:42.836Z,3.70
2019-04-26T22:50:14.070Z,5.67
2019-04-26T22:52:39.223Z,4.83
2019-04-26T22:55:06.856Z,5.70
2019-04-26T22:57:34.093Z,4.40
2019-04-26T23:00:01.281Z,3.37
2019-04-26T23:02:28.466Z,5.67
2019-04-26T23:04:59.983Z,5.60
2019-04-26T23:07:26.248Z,4.40
2019-04-26T23:09:55.524Z,6.37
2019-04-26T23:12:45.525Z,5.33
2019-04-26T23:15:43.233Z,7.50
2019-04-26T23:18:18.864Z,6.67
2019-04-26T23:21:03.445Z,6.73
2019-04-26T23:23:30.804Z,5.23
2019-04-26T23:25:57.996Z,6.20
2019-04-26T23:28:27.771Z,6.27
2019-04-26T23:30:54.392Z,6.27
2019-04-26T23:33:21.607Z,6.37
2019-04-26T23:35:48.880Z,6.13
2019-04-26T23:38:16.128Z,6.90
2019-04-26T23:40:43.332Z,5.67
2019-04-26T23:43:10.529Z,6.40
2019-04-26T23:45:43.589Z,6.90
2019-04-26T23:48:07.731Z,8.13
2019-04-26T23:50:36.117Z,10.83
2019-04-26T23:53:03.315Z,9.50
2019-04-26T23:55:30.561Z,10.53
2019-04-26T23:57:57.757Z,12.70
